Terminal Aerodrome Forecast
Issued by NWS Springfield, MO

Home | Current Version | Previous Version | Text Only | Print | Product List | Glossary On
Versions: 1 2 3 4 5 6 7 8 9 10 11 12 13 14 15 16 17
000
FTUS43 KSGF 251700
TAFSGF
TAF
KSGF 251732Z 2518/2618 31019G30KT P6SM -RA OVC015
      TEMPO 2518/2521 4SM -RA BR BKN009
     FM260000 34014G23KT P6SM OVC012
     FM260500 33010KT P6SM OVC010
     FM260900 VRB04KT 6SM BR BKN010
     FM261400 23007KT P6SM SCT010=

USA.gov is the U.S. government's official web portal to all federal, state and local government web resources and services.